sensor_id;sensor_type;location;lat;lon;timestamp;P1;durP1;ratioP1;P2;durP2;ratioP2
57335;SDS011;43171;50.994;18.204;2023-04-25T00:05:11;6.00;;;3.50;;
57335;SDS011;43171;50.994;18.204;2023-04-25T00:14:54;6.30;;;4.70;;
57335;SDS011;43171;50.994;18.204;2023-04-25T00:24:41;6.50;;;4.80;;
57335;SDS011;43171;50.994;18.204;2023-04-25T00:34:23;6.40;;;4.00;;
57335;SDS011;43171;50.994;18.204;2023-04-25T00:44:05;3.60;;;2.10;;
57335;SDS011;43171;50.994;18.204;2023-04-25T00:53:50;4.30;;;2.90;;
57335;SDS011;43171;50.994;18.204;2023-04-25T00:58:42;4.00;;;2.80;;
57335;SDS011;43171;50.994;18.204;2023-04-25T01:08:27;1.80;;;1.70;;
57335;SDS011;43171;50.994;18.204;2023-04-25T01:18:09;2.40;;;2.10;;
57335;SDS011;43171;50.994;18.204;2023-04-25T01:27:53;2.70;;;2.30;;
57335;SDS011;43171;50.994;18.204;2023-04-25T01:37:39;2.30;;;2.10;;
57335;SDS011;43171;50.994;18.204;2023-04-25T01:47:23;2.60;;;2.00;;
57335;SDS011;43171;50.994;18.204;2023-04-25T01:57:09;0.90;;;0.90;;
57335;SDS011;43171;50.994;18.204;2023-04-25T02:06:57;6.90;;;1.30;;
57335;SDS011;43171;50.994;18.204;2023-04-25T02:16:40;1.90;;;1.80;;
57335;SDS011;43171;50.994;18.204;2023-04-25T02:19:05;2.90;;;1.80;;
57335;SDS011;43171;50.994;18.204;2023-04-25T02:28:49;1.60;;;1.20;;
57335;SDS011;43171;50.994;18.204;2023-04-25T02:38:32;1.50;;;1.40;;
57335;SDS011;43171;50.994;18.204;2023-04-25T02:48:14;1.10;;;1.00;;
57335;SDS011;43171;50.994;18.204;2023-04-25T02:50:39;3.10;;;2.10;;
57335;SDS011;43171;50.994;18.204;2023-04-25T03:00:21;2.00;;;1.90;;
57335;SDS011;43171;50.994;18.204;2023-04-25T03:07:38;2.60;;;2.20;;
57335;SDS011;43171;50.994;18.204;2023-04-25T03:17:22;1.80;;;1.60;;
57335;SDS011;43171;50.994;18.204;2023-04-25T03:27:06;1.90;;;1.80;;
57335;SDS011;43171;50.994;18.204;2023-04-25T03:36:49;2.30;;;2.10;;
57335;SDS011;43171;50.994;18.204;2023-04-25T03:46:32;2.80;;;2.20;;
57335;SDS011;43171;50.994;18.204;2023-04-25T03:56:13;3.80;;;3.40;;
57335;SDS011;43171;50.994;18.204;2023-04-25T04:06:01;1.50;;;1.40;;
57335;SDS011;43171;50.994;18.204;2023-04-25T04:15:46;2.20;;;2.00;;
57335;SDS011;43171;50.994;18.204;2023-04-25T04:25:29;1.70;;;1.60;;
57335;SDS011;43171;50.994;18.204;2023-04-25T04:35:15;2.20;;;2.00;;
57335;SDS011;43171;50.994;18.204;2023-04-25T04:44:58;3.20;;;2.70;;
57335;SDS011;43171;50.994;18.204;2023-04-25T04:54:41;4.30;;;3.00;;
57335;SDS011;43171;50.994;18.204;2023-04-25T05:04:23;1.90;;;1.60;;
57335;SDS011;43171;50.994;18.204;2023-04-25T05:14:06;1.60;;;1.50;;
57335;SDS011;43171;50.994;18.204;2023-04-25T05:23:48;11.00;;;3.20;;
57335;SDS011;43171;50.994;18.204;2023-04-25T05:33:35;4.10;;;2.80;;
57335;SDS011;43171;50.994;18.204;2023-04-25T05:43:17;4.30;;;3.30;;
57335;SDS011;43171;50.994;18.204;2023-04-25T05:52:59;6.80;;;3.90;;
57335;SDS011;43171;50.994;18.204;2023-04-25T06:02:41;4.10;;;3.20;;
57335;SDS011;43171;50.994;18.204;2023-04-25T06:12:26;7.00;;;5.00;;
57335;SDS011;43171;50.994;18.204;2023-04-25T06:22:08;4.80;;;3.60;;
57335;SDS011;43171;50.994;18.204;2023-04-25T06:31:50;3.50;;;3.20;;
57335;SDS011;43171;50.994;18.204;2023-04-25T06:41:35;4.50;;;3.20;;
57335;SDS011;43171;50.994;18.204;2023-04-25T06:51:17;6.70;;;5.30;;
57335;SDS011;43171;50.994;18.204;2023-04-25T07:00:59;5.70;;;4.90;;
57335;SDS011;43171;50.994;18.204;2023-04-25T07:10:41;3.10;;;2.90;;
57335;SDS011;43171;50.994;18.204;2023-04-25T07:20:23;5.90;;;4.10;;
57335;SDS011;43171;50.994;18.204;2023-04-25T07:30:06;6.50;;;4.40;;
57335;SDS011;43171;50.994;18.204;2023-04-25T07:39:49;6.20;;;3.30;;
57335;SDS011;43171;50.994;18.204;2023-04-25T07:49:33;3.70;;;3.40;;
57335;SDS011;43171;50.994;18.204;2023-04-25T07:59:16;5.00;;;3.60;;
57335;SDS011;43171;50.994;18.204;2023-04-25T08:08:58;2.80;;;1.40;;
57335;SDS011;43171;50.994;18.204;2023-04-25T08:18:41;5.40;;;4.10;;
57335;SDS011;43171;50.994;18.204;2023-04-25T08:28:28;9.60;;;3.20;;
57335;SDS011;43171;50.994;18.204;2023-04-25T08:38:10;3.80;;;2.90;;
57335;SDS011;43171;50.994;18.204;2023-04-25T08:58:09;3.90;;;2.40;;
57335;SDS011;43171;50.994;18.204;2023-04-25T09:07:54;4.00;;;2.30;;
57335;SDS011;43171;50.994;18.204;2023-04-25T09:17:55;4.60;;;1.90;;
57335;SDS011;43171;50.994;18.204;2023-04-25T09:27:49;4.00;;;1.90;;
57335;SDS011;43171;50.994;18.204;2023-04-25T09:38:07;4.20;;;2.60;;
57335;SDS011;43171;50.994;18.204;2023-04-25T09:48:11;2.20;;;2.10;;
57335;SDS011;43171;50.994;18.204;2023-04-25T09:58:01;6.80;;;2.40;;
57335;SDS011;43171;50.994;18.204;2023-04-25T10:12:53;3.10;;;2.90;;
57335;SDS011;43171;50.994;18.204;2023-04-25T10:22:38;2.30;;;2.10;;
57335;SDS011;43171;50.994;18.204;2023-04-25T10:32:36;5.00;;;2.70;;
57335;SDS011;43171;50.994;18.204;2023-04-25T10:42:52;4.00;;;2.80;;
57335;SDS011;43171;50.994;18.204;2023-04-25T10:52:40;7.70;;;3.40;;
57335;SDS011;43171;50.994;18.204;2023-04-25T11:02:53;4.40;;;4.00;;
57335;SDS011;43171;50.994;18.204;2023-04-25T11:12:50;3.80;;;3.50;;
57335;SDS011;43171;50.994;18.204;2023-04-25T11:22:39;3.60;;;3.20;;
57335;SDS011;43171;50.994;18.204;2023-04-25T11:32:46;3.50;;;2.50;;
57335;SDS011;43171;50.994;18.204;2023-04-25T11:42:32;3.20;;;2.80;;
57335;SDS011;43171;50.994;18.204;2023-04-25T11:52:21;3.30;;;3.00;;
57335;SDS011;43171;50.994;18.204;2023-04-25T11:54:46;5.70;;;4.80;;
57335;SDS011;43171;50.994;18.204;2023-04-25T12:04:29;3.50;;;3.00;;
57335;SDS011;43171;50.994;18.204;2023-04-25T12:14:34;5.30;;;4.60;;
57335;SDS011;43171;50.994;18.204;2023-04-25T12:24:28;3.80;;;3.50;;
57335;SDS011;43171;50.994;18.204;2023-04-25T12:34:20;5.10;;;3.10;;
57335;SDS011;43171;50.994;18.204;2023-04-25T12:44:10;4.20;;;3.40;;
57335;SDS011;43171;50.994;18.204;2023-04-25T12:53:54;5.80;;;1.80;;
57335;SDS011;43171;50.994;18.204;2023-04-25T13:03:39;2.60;;;2.20;;
57335;SDS011;43171;50.994;18.204;2023-04-25T13:13:22;1.50;;;1.40;;
57335;SDS011;43171;50.994;18.204;2023-04-25T13:23:06;1.80;;;1.70;;
57335;SDS011;43171;50.994;18.204;2023-04-25T13:32:48;4.00;;;1.50;;
57335;SDS011;43171;50.994;18.204;2023-04-25T13:42:35;3.30;;;0.90;;
57335;SDS011;43171;50.994;18.204;2023-04-25T13:52:19;1.10;;;1.00;;
57335;SDS011;43171;50.994;18.204;2023-04-25T14:02:02;2.60;;;1.40;;
57335;SDS011;43171;50.994;18.204;2023-04-25T14:11:53;2.60;;;1.50;;
57335;SDS011;43171;50.994;18.204;2023-04-25T14:21:39;0.90;;;0.90;;
57335;SDS011;43171;50.994;18.204;2023-04-25T14:31:21;1.00;;;0.80;;
57335;SDS011;43171;50.994;18.204;2023-04-25T14:41:05;1.70;;;1.20;;
57335;SDS011;43171;50.994;18.204;2023-04-25T14:50:48;1.00;;;1.00;;
57335;SDS011;43171;50.994;18.204;2023-04-25T14:58:05;3.90;;;1.90;;
57335;SDS011;43171;50.994;18.204;2023-04-25T15:07:49;3.50;;;1.80;;
57335;SDS011;43171;50.994;18.204;2023-04-25T15:17:40;3.80;;;2.10;;
57335;SDS011;43171;50.994;18.204;2023-04-25T15:27:23;1.60;;;1.50;;
